sensor_id;sensor_type;location;lat;lon;timestamp;P1;durP1;ratioP1;P2;durP2;ratioP2
9370;SDS011;4725;48.384;8.984;2023-05-07T00:00:41;5.07;;;2.50;;
9370;SDS011;4725;48.384;8.984;2023-05-07T00:03:08;2.77;;;2.10;;
9370;SDS011;4725;48.384;8.984;2023-05-07T00:05:37;5.25;;;2.83;;
9370;SDS011;4725;48.384;8.984;2023-05-07T00:08:04;4.00;;;2.17;;
9370;SDS011;4725;48.384;8.984;2023-05-07T00:10:31;4.93;;;2.57;;
9370;SDS011;4725;48.384;8.984;2023-05-07T00:12:58;5.07;;;2.70;;
9370;SDS011;4725;48.384;8.984;2023-05-07T00:15:25;5.57;;;2.73;;
9370;SDS011;4725;48.384;8.984;2023-05-07T00:17:53;4.23;;;2.83;;
9370;SDS011;4725;48.384;8.984;2023-05-07T00:20:20;3.67;;;2.57;;
9370;SDS011;4725;48.384;8.984;2023-05-07T00:22:48;8.67;;;2.47;;
9370;SDS011;4725;48.384;8.984;2023-05-07T00:25:15;3.17;;;2.30;;
9370;SDS011;4725;48.384;8.984;2023-05-07T00:27:41;3.13;;;2.40;;
9370;SDS011;4725;48.384;8.984;2023-05-07T00:30:09;5.47;;;2.40;;
9370;SDS011;4725;48.384;8.984;2023-05-07T00:32:36;5.50;;;3.80;;
9370;SDS011;4725;48.384;8.984;2023-05-07T00:35:04;4.60;;;2.50;;
9370;SDS011;4725;48.384;8.984;2023-05-07T00:37:32;5.13;;;2.30;;
9370;SDS011;4725;48.384;8.984;2023-05-07T00:40:00;2.63;;;2.00;;
9370;SDS011;4725;48.384;8.984;2023-05-07T00:42:29;2.33;;;1.80;;
9370;SDS011;4725;48.384;8.984;2023-05-07T00:44:57;4.40;;;2.60;;
9370;SDS011;4725;48.384;8.984;2023-05-07T00:47:24;3.67;;;2.37;;
9370;SDS011;4725;48.384;8.984;2023-05-07T00:49:51;2.73;;;2.53;;
9370;SDS011;4725;48.384;8.984;2023-05-07T00:52:19;4.03;;;1.97;;
9370;SDS011;4725;48.384;8.984;2023-05-07T00:54:47;5.90;;;2.90;;
9370;SDS011;4725;48.384;8.984;2023-05-07T00:57:16;2.93;;;2.40;;
9370;SDS011;4725;48.384;8.984;2023-05-07T00:59:43;4.90;;;2.87;;
9370;SDS011;4725;48.384;8.984;2023-05-07T01:02:10;5.47;;;2.27;;
9370;SDS011;4725;48.384;8.984;2023-05-07T01:04:37;2.83;;;2.40;;
9370;SDS011;4725;48.384;8.984;2023-05-07T01:07:04;2.80;;;2.20;;
9370;SDS011;4725;48.384;8.984;2023-05-07T01:09:31;2.30;;;1.77;;
9370;SDS011;4725;48.384;8.984;2023-05-07T01:12:00;2.73;;;2.17;;
9370;SDS011;4725;48.384;8.984;2023-05-07T01:14:28;2.47;;;2.13;;
9370;SDS011;4725;48.384;8.984;2023-05-07T01:16:56;3.47;;;2.23;;
9370;SDS011;4725;48.384;8.984;2023-05-07T01:19:23;4.30;;;2.90;;
9370;SDS011;4725;48.384;8.984;2023-05-07T01:21:51;6.50;;;2.70;;
9370;SDS011;4725;48.384;8.984;2023-05-07T01:24:25;4.43;;;2.20;;
9370;SDS011;4725;48.384;8.984;2023-05-07T01:26:52;2.77;;;2.20;;
9370;SDS011;4725;48.384;8.984;2023-05-07T01:29:18;3.90;;;2.87;;
9370;SDS011;4725;48.384;8.984;2023-05-07T01:31:45;2.87;;;1.97;;
9370;SDS011;4725;48.384;8.984;2023-05-07T01:34:13;3.80;;;2.20;;
9370;SDS011;4725;48.384;8.984;2023-05-07T01:36:43;4.27;;;2.83;;
9370;SDS011;4725;48.384;8.984;2023-05-07T01:39:11;3.47;;;2.00;;
9370;SDS011;4725;48.384;8.984;2023-05-07T01:41:40;2.20;;;1.93;;
9370;SDS011;4725;48.384;8.984;2023-05-07T01:44:07;3.47;;;2.10;;
9370;SDS011;4725;48.384;8.984;2023-05-07T01:46:36;2.73;;;2.43;;
9370;SDS011;4725;48.384;8.984;2023-05-07T01:49:03;3.27;;;1.70;;
9370;SDS011;4725;48.384;8.984;2023-05-07T01:51:29;1.87;;;1.60;;
9370;SDS011;4725;48.384;8.984;2023-05-07T01:53:57;9.63;;;2.50;;
9370;SDS011;4725;48.384;8.984;2023-05-07T01:56:24;3.60;;;2.37;;
9370;SDS011;4725;48.384;8.984;2023-05-07T01:58:52;2.53;;;1.93;;
9370;SDS011;4725;48.384;8.984;2023-05-07T02:01:19;2.73;;;2.00;;
9370;SDS011;4725;48.384;8.984;2023-05-07T02:03:46;2.73;;;2.10;;
9370;SDS011;4725;48.384;8.984;2023-05-07T02:06:13;5.90;;;2.73;;
9370;SDS011;4725;48.384;8.984;2023-05-07T02:08:40;3.83;;;2.43;;
9370;SDS011;4725;48.384;8.984;2023-05-07T02:11:07;6.03;;;2.50;;
9370;SDS011;4725;48.384;8.984;2023-05-07T02:13:34;6.60;;;2.67;;
9370;SDS011;4725;48.384;8.984;2023-05-07T02:16:02;2.33;;;2.10;;
9370;SDS011;4725;48.384;8.984;2023-05-07T02:18:30;7.60;;;2.70;;
9370;SDS011;4725;48.384;8.984;2023-05-07T02:20:58;10.23;;;3.30;;
9370;SDS011;4725;48.384;8.984;2023-05-07T02:23:24;3.03;;;2.70;;
9370;SDS011;4725;48.384;8.984;2023-05-07T02:25:51;2.80;;;2.20;;
9370;SDS011;4725;48.384;8.984;2023-05-07T02:28:18;4.57;;;2.50;;
9370;SDS011;4725;48.384;8.984;2023-05-07T02:30:45;2.60;;;2.40;;
9370;SDS011;4725;48.384;8.984;2023-05-07T02:33:13;2.67;;;2.47;;
9370;SDS011;4725;48.384;8.984;2023-05-07T02:35:40;2.77;;;2.57;;
9370;SDS011;4725;48.384;8.984;2023-05-07T02:38:07;2.50;;;2.30;;
9370;SDS011;4725;48.384;8.984;2023-05-07T02:40:35;2.73;;;2.40;;
9370;SDS011;4725;48.384;8.984;2023-05-07T02:43:03;4.10;;;2.03;;
9370;SDS011;4725;48.384;8.984;2023-05-07T02:45:31;4.00;;;3.10;;
9370;SDS011;4725;48.384;8.984;2023-05-07T02:47:58;3.67;;;2.73;;
9370;SDS011;4725;48.384;8.984;2023-05-07T02:50:26;3.93;;;2.50;;
9370;SDS011;4725;48.384;8.984;2023-05-07T02:52:53;4.30;;;2.83;;
9370;SDS011;4725;48.384;8.984;2023-05-07T02:55:20;5.03;;;3.00;;
9370;SDS011;4725;48.384;8.984;2023-05-07T02:57:47;4.67;;;2.77;;
9370;SDS011;4725;48.384;8.984;2023-05-07T03:00:15;4.40;;;2.97;;
9370;SDS011;4725;48.384;8.984;2023-05-07T03:02:43;4.37;;;2.77;;
9370;SDS011;4725;48.384;8.984;2023-05-07T03:05:10;4.37;;;3.43;;
9370;SDS011;4725;48.384;8.984;2023-05-07T03:07:40;6.77;;;3.20;;
9370;SDS011;4725;48.384;8.984;2023-05-07T03:10:10;3.57;;;3.00;;
9370;SDS011;4725;48.384;8.984;2023-05-07T03:12:37;3.53;;;3.13;;
9370;SDS011;4725;48.384;8.984;2023-05-07T03:15:04;7.60;;;3.30;;
9370;SDS011;4725;48.384;8.984;2023-05-07T03:17:31;3.73;;;2.87;;
9370;SDS011;4725;48.384;8.984;2023-05-07T03:19:58;6.97;;;3.40;;
9370;SDS011;4725;48.384;8.984;2023-05-07T03:22:25;3.40;;;2.87;;
9370;SDS011;4725;48.384;8.984;2023-05-07T03:24:53;6.93;;;4.27;;
9370;SDS011;4725;48.384;8.984;2023-05-07T03:27:20;5.40;;;3.07;;
9370;SDS011;4725;48.384;8.984;2023-05-07T03:29:47;5.53;;;3.60;;
9370;SDS011;4725;48.384;8.984;2023-05-07T03:32:14;3.90;;;3.37;;
9370;SDS011;4725;48.384;8.984;2023-05-07T03:34:41;9.73;;;3.73;;
9370;SDS011;4725;48.384;8.984;2023-05-07T03:37:08;3.97;;;3.20;;
9370;SDS011;4725;48.384;8.984;2023-05-07T03:39:35;4.20;;;3.20;;
9370;SDS011;4725;48.384;8.984;2023-05-07T03:42:03;5.13;;;3.17;;
9370;SDS011;4725;48.384;8.984;2023-05-07T03:44:30;3.50;;;2.97;;
9370;SDS011;4725;48.384;8.984;2023-05-07T03:46:57;3.77;;;3.10;;
9370;SDS011;4725;48.384;8.984;2023-05-07T03:49:24;5.10;;;3.17;;
9370;SDS011;4725;48.384;8.984;2023-05-07T03:51:52;3.17;;;2.93;;
9370;SDS011;4725;48.384;8.984;2023-05-07T03:54:19;3.77;;;2.50;;
9370;SDS011;4725;48.384;8.984;2023-05-07T03:56:46;4.60;;;3.07;;
9370;SDS011;4725;48.384;8.984;2023-05-07T03:59:14;2.87;;;2.63;;
9370;SDS011;4725;48.384;8.984;2023-05-07T04:01:41;2.70;;;2.50;;
9370;SDS011;4725;48.384;8.984;2023-05-07T04:04:08;3.77;;;3.27;;
9370;SDS011;4725;48.384;8.984;2023-05-07T04:06:35;3.60;;;3.03;;
9370;SDS011;4725;48.384;8.984;2023-05-07T04:09:02;5.50;;;3.33;;
9370;SDS011;4725;48.384;8.984;2023-05-07T04:11:29;7.80;;;3.00;;
9370;SDS011;4725;48.384;8.984;2023-05-07T04:13:56;3.13;;;2.83;;
9370;SDS011;4725;48.384;8.984;2023-05-07T04:16:24;4.20;;;3.43;;
9370;SDS011;4725;48.384;8.984;2023-05-07T04:18:51;6.77;;;3.27;;
9370;SDS011;4725;48.384;8.984;2023-05-07T04:21:18;6.43;;;3.13;;
9370;SDS011;4725;48.384;8.984;2023-05-07T04:23:46;3.93;;;3.20;;
9370;SDS011;4725;48.384;8.984;2023-05-07T04:26:14;6.40;;;3.47;;
9370;SDS011;4725;48.384;8.984;2023-05-07T04:28:42;4.93;;;3.07;;
9370;SDS011;4725;48.384;8.984;2023-05-07T04:31:09;4.27;;;2.60;;
9370;SDS011;4725;48.384;8.984;2023-05-07T04:33:38;4.37;;;2.60;;
9370;SDS011;4725;48.384;8.984;2023-05-07T04:36:05;3.03;;;2.73;;
9370;SDS011;4725;48.384;8.984;2023-05-07T04:38:32;4.43;;;2.60;;
9370;SDS011;4725;48.384;8.984;2023-05-07T04:41:02;4.90;;;2.57;;
9370;SDS011;4725;48.384;8.984;2023-05-07T04:43:30;3.00;;;2.70;;
9370;SDS011;4725;48.384;8.984;2023-05-07T04:45:57;3.27;;;2.87;;
9370;SDS011;4725;48.384;8.984;2023-05-07T04:48:23;2.90;;;2.70;;
9370;SDS011;4725;48.384;8.984;2023-05-07T04:50:52;4.57;;;3.13;;
9370;SDS011;4725;48.384;8.984;2023-05-07T04:53:19;3.73;;;2.80;;
9370;SDS011;4725;48.384;8.984;2023-05-07T04:55:47;3.83;;;2.80;;
9370;SDS011;4725;48.384;8.984;2023-05-07T04:58:14;5.13;;;3.13;;
9370;SDS011;4725;48.384;8.984;2023-05-07T05:00:41;3.57;;;2.83;;
9370;SDS011;4725;48.384;8.984;2023-05-07T05:03:08;4.90;;;3.13;;
9370;SDS011;4725;48.384;8.984;2023-05-07T05:05:36;5.30;;;3.20;;
9370;SDS011;4725;48.384;8.984;2023-05-07T05:08:04;4.03;;;3.27;;
9370;SDS011;4725;48.384;8.984;2023-05-07T05:10:31;3.63;;;2.97;;
9370;SDS011;4725;48.384;8.984;2023-05-07T05:12:58;3.10;;;2.63;;
9370;SDS011;4725;48.384;8.984;2023-05-07T05:15:25;3.40;;;3.00;;
9370;SDS011;4725;48.384;8.984;2023-05-07T05:17:51;3.77;;;2.80;;
9370;SDS011;4725;48.384;8.984;2023-05-07T05:20:18;3.47;;;2.40;;
9370;SDS011;4725;48.384;8.984;2023-05-07T05:22:45;3.17;;;2.87;;
9370;SDS011;4725;48.384;8.984;2023-05-07T05:25:13;3.50;;;2.80;;
9370;SDS011;4725;48.384;8.984;2023-05-07T05:27:40;5.77;;;3.03;;
9370;SDS011;4725;48.384;8.984;2023-05-07T05:30:07;6.73;;;3.47;;
9370;SDS011;4725;48.384;8.984;2023-05-07T05:32:35;3.63;;;2.83;;
9370;SDS011;4725;48.384;8.984;2023-05-07T05:35:02;6.10;;;3.27;;
9370;SDS011;4725;48.384;8.984;2023-05-07T05:37:29;4.27;;;3.03;;
9370;SDS011;4725;48.384;8.984;2023-05-07T05:39:56;3.43;;;3.00;;
9370;SDS011;4725;48.384;8.984;2023-05-07T05:42:24;4.67;;;2.97;;
9370;SDS011;4725;48.384;8.984;2023-05-07T05:44:51;2.60;;;2.33;;
9370;SDS011;4725;48.384;8.984;2023-05-07T05:47:18;3.37;;;2.30;;
9370;SDS011;4725;48.384;8.984;2023-05-07T05:49:45;2.70;;;2.20;;
9370;SDS011;4725;48.384;8.984;2023-05-07T05:52:12;2.50;;;2.30;;
9370;SDS011;4725;48.384;8.984;2023-05-07T05:54:39;3.63;;;3.03;;
9370;SDS011;4725;48.384;8.984;2023-05-07T05:57:06;4.03;;;2.50;;
9370;SDS011;4725;48.384;8.984;2023-05-07T05:59:34;3.13;;;2.58;;
9370;SDS011;4725;48.384;8.984;2023-05-07T06:02:01;2.92;;;2.35;;
9370;SDS011;4725;48.384;8.984;2023-05-07T06:04:28;3.20;;;2.22;;
9370;SDS011;4725;48.384;8.984;2023-05-07T06:06:55;5.22;;;2.55;;
9370;SDS011;4725;48.384;8.984;2023-05-07T06:09:22;2.53;;;2.33;;
9370;SDS011;4725;48.384;8.984;2023-05-07T06:11:49;5.63;;;2.47;;
9370;SDS011;4725;48.384;8.984;2023-05-07T06:14:16;8.68;;;2.58;;
9370;SDS011;4725;48.384;8.984;2023-05-07T06:16:44;3.30;;;2.70;;
9370;SDS011;4725;48.384;8.984;2023-05-07T06:19:11;3.60;;;2.30;;
9370;SDS011;4725;48.384;8.984;2023-05-07T06:21:38;2.67;;;2.38;;
9370;SDS011;4725;48.384;8.984;2023-05-07T06:24:06;2.00;;;1.70;;
9370;SDS011;4725;48.384;8.984;2023-05-07T06:26:33;3.72;;;2.28;;
9370;SDS011;4725;48.384;8.984;2023-05-07T06:29:00;4.03;;;2.55;;
9370;SDS011;4725;48.384;8.984;2023-05-07T06:31:29;3.47;;;1.90;;
9370;SDS011;4725;48.384;8.984;2023-05-07T06:33:59;2.00;;;1.80;;
9370;SDS011;4725;48.384;8.984;2023-05-07T06:36:27;3.30;;;1.90;;
9370;SDS011;4725;48.384;8.984;2023-05-07T06:38:54;6.80;;;2.58;;
9370;SDS011;4725;48.384;8.984;2023-05-07T06:41:21;4.07;;;2.28;;
9370;SDS011;4725;48.384;8.984;2023-05-07T06:43:48;2.53;;;2.05;;
9370;SDS011;4725;48.384;8.984;2023-05-07T06:46:15;3.90;;;1.98;;
9370;SDS011;4725;48.384;8.984;2023-05-07T06:48:42;2.22;;;2.03;;
9370;SDS011;4725;48.384;8.984;2023-05-07T06:51:10;6.60;;;1.98;;
9370;SDS011;4725;48.384;8.984;2023-05-07T06:53:37;3.55;;;2.28;;
9370;SDS011;4725;48.384;8.984;2023-05-07T06:56:04;3.00;;;2.05;;
9370;SDS011;4725;48.384;8.984;2023-05-07T06:58:31;2.55;;;2.20;;
9370;SDS011;4725;48.384;8.984;2023-05-07T07:00:58;3.42;;;2.38;;
9370;SDS011;4725;48.384;8.984;2023-05-07T07:03:25;3.80;;;2.60;;
9370;SDS011;4725;48.384;8.984;2023-05-07T07:05:52;6.97;;;2.50;;
9370;SDS011;4725;48.384;8.984;2023-05-07T07:08:21;4.13;;;2.33;;
9370;SDS011;4725;48.384;8.984;2023-05-07T07:10:48;2.83;;;2.28;;
9370;SDS011;4725;48.384;8.984;2023-05-07T07:13:15;3.08;;;2.45;;
9370;SDS011;4725;48.384;8.984;2023-05-07T07:15:42;3.17;;;2.58;;
9370;SDS011;4725;48.384;8.984;2023-05-07T07:18:10;5.72;;;2.58;;
9370;SDS011;4725;48.384;8.984;2023-05-07T07:20:36;3.35;;;2.47;;
9370;SDS011;4725;48.384;8.984;2023-05-07T07:23:03;4.90;;;2.70;;
9370;SDS011;4725;48.384;8.984;2023-05-07T07:25:32;3.15;;;2.42;;
9370;SDS011;4725;48.384;8.984;2023-05-07T07:27:59;5.35;;;2.88;;
9370;SDS011;4725;48.384;8.984;2023-05-07T07:30:26;2.55;;;2.35;;
9370;SDS011;4725;48.384;8.984;2023-05-07T07:32:52;4.38;;;2.35;;
9370;SDS011;4725;48.384;8.984;2023-05-07T07:35:21;5.32;;;2.42;;
9370;SDS011;4725;48.384;8.984;2023-05-07T07:37:48;2.83;;;2.25;;
9370;SDS011;4725;48.384;8.984;2023-05-07T07:40:15;4.30;;;2.25;;
9370;SDS011;4725;48.384;8.984;2023-05-07T07:42:43;3.05;;;2.22;;
9370;SDS011;4725;48.384;8.984;2023-05-07T07:45:11;2.65;;;2.45;;
9370;SDS011;4725;48.384;8.984;2023-05-07T07:47:38;2.65;;;2.20;;
9370;SDS011;4725;48.384;8.984;2023-05-07T07:50:05;2.53;;;2.33;;
9370;SDS011;4725;48.384;8.984;2023-05-07T07:52:33;3.28;;;2.00;;
9370;SDS011;4725;48.384;8.984;2023-05-07T07:55:00;4.38;;;2.30;;
9370;SDS011;4725;48.384;8.984;2023-05-07T07:57:27;4.40;;;2.35;;
9370;SDS011;4725;48.384;8.984;2023-05-07T07:59:55;2.40;;;2.20;;
9370;SDS011;4725;48.384;8.984;2023-05-07T08:02:22;2.28;;;2.08;;
9370;SDS011;4725;48.384;8.984;2023-05-07T08:04:49;3.83;;;2.22;;
9370;SDS011;4725;48.384;8.984;2023-05-07T08:07:16;3.70;;;2.22;;
9370;SDS011;4725;48.384;8.984;2023-05-07T08:09:45;2.47;;;2.10;;
9370;SDS011;4725;48.384;8.984;2023-05-07T08:12:12;7.55;;;2.83;;
9370;SDS011;4725;48.384;8.984;2023-05-07T08:14:39;5.28;;;1.98;;
9370;SDS011;4725;48.384;8.984;2023-05-07T08:17:08;2.70;;;1.98;;
9370;SDS011;4725;48.384;8.984;2023-05-07T08:19:35;2.78;;;2.42;;
9370;SDS011;4725;48.384;8.984;2023-05-07T08:22:02;4.45;;;2.60;;
9370;SDS011;4725;48.384;8.984;2023-05-07T08:24:29;4.53;;;2.08;;
9370;SDS011;4725;48.384;8.984;2023-05-07T08:26:56;4.22;;;2.30;;
9370;SDS011;4725;48.384;8.984;2023-05-07T08:29:23;3.65;;;2.25;;
9370;SDS011;4725;48.384;8.984;2023-05-07T08:31:50;3.03;;;2.03;;
9370;SDS011;4725;48.384;8.984;2023-05-07T08:34:18;5.95;;;2.42;;
9370;SDS011;4725;48.384;8.984;2023-05-07T08:36:45;3.13;;;2.13;;
9370;SDS011;4725;48.384;8.984;2023-05-07T08:39:13;2.88;;;2.22;;
9370;SDS011;4725;48.384;8.984;2023-05-07T08:41:41;2.63;;;2.20;;
9370;SDS011;4725;48.384;8.984;2023-05-07T08:44:11;3.30;;;2.20;;
9370;SDS011;4725;48.384;8.984;2023-05-07T08:46:39;3.97;;;1.95;;
9370;SDS011;4725;48.384;8.984;2023-05-07T08:49:08;3.28;;;2.10;;
9370;SDS011;4725;48.384;8.984;2023-05-07T08:51:37;3.33;;;2.30;;
9370;SDS011;4725;48.384;8.984;2023-05-07T08:54:04;2.83;;;2.20;;
9370;SDS011;4725;48.384;8.984;2023-05-07T08:56:32;4.03;;;2.50;;
9370;SDS011;4725;48.384;8.984;2023-05-07T08:58:59;3.85;;;2.33;;
9370;SDS011;4725;48.384;8.984;2023-05-07T09:01:26;4.45;;;2.53;;
9370;SDS011;4725;48.384;8.984;2023-05-07T09:03:53;2.45;;;2.22;;
9370;SDS011;4725;48.384;8.984;2023-05-07T09:06:20;5.10;;;2.17;;
9370;SDS011;4725;48.384;8.984;2023-05-07T09:08:52;2.10;;;1.90;;
9370;SDS011;4725;48.384;8.984;2023-05-07T09:11:20;2.42;;;2.05;;
9370;SDS011;4725;48.384;8.984;2023-05-07T09:13:48;5.97;;;2.55;;
9370;SDS011;4725;48.384;8.984;2023-05-07T09:16:20;2.00;;;1.80;;
9370;SDS011;4725;48.384;8.984;2023-05-07T09:18:48;2.63;;;2.38;;
9370;SDS011;4725;48.384;8.984;2023-05-07T09:21:18;5.82;;;2.10;;
9370;SDS011;4725;48.384;8.984;2023-05-07T09:23:45;4.75;;;2.40;;
9370;SDS011;4725;48.384;8.984;2023-05-07T09:26:15;2.92;;;1.83;;
9370;SDS011;4725;48.384;8.984;2023-05-07T09:28:42;2.17;;;1.98;;
9370;SDS011;4725;48.384;8.984;2023-05-07T09:31:09;2.25;;;2.08;;
9370;SDS011;4725;48.384;8.984;2023-05-07T09:33:37;5.00;;;2.28;;
9370;SDS011;4725;48.384;8.984;2023-05-07T09:36:04;3.53;;;2.15;;
9370;SDS011;4725;48.384;8.984;2023-05-07T09:38:32;2.15;;;1.90;;
9370;SDS011;4725;48.384;8.984;2023-05-07T09:41:03;3.63;;;2.13;;
9370;SDS011;4725;48.384;8.984;2023-05-07T09:43:35;2.95;;;2.22;;
9370;SDS011;4725;48.384;8.984;2023-05-07T09:46:03;5.40;;;2.22;;
9370;SDS011;4725;48.384;8.984;2023-05-07T09:48:35;2.65;;;2.22;;
9370;SDS011;4725;48.384;8.984;2023-05-07T09:51:06;5.18;;;2.17;;
9370;SDS011;4725;48.384;8.984;2023-05-07T09:53:41;3.47;;;2.55;;
9370;SDS011;4725;48.384;8.984;2023-05-07T09:56:11;4.13;;;2.10;;
9370;SDS011;4725;48.384;8.984;2023-05-07T09:58:41;4.72;;;2.20;;
9370;SDS011;4725;48.384;8.984;2023-05-07T10:01:10;2.97;;;2.20;;
9370;SDS011;4725;48.384;8.984;2023-05-07T10:03:37;2.88;;;2.15;;
9370;SDS011;4725;48.384;8.984;2023-05-07T10:06:06;2.40;;;2.20;;
9370;SDS011;4725;48.384;8.984;2023-05-07T10:08:35;2.22;;;2.00;;
9370;SDS011;4725;48.384;8.984;2023-05-07T10:11:02;2.75;;;1.90;;
9370;SDS011;4725;48.384;8.984;2023-05-07T10:13:30;3.50;;;2.28;;
9370;SDS011;4725;48.384;8.984;2023-05-07T10:16:00;2.42;;;2.22;;
9370;SDS011;4725;48.384;8.984;2023-05-07T10:18:27;5.47;;;2.30;;
9370;SDS011;4725;48.384;8.984;2023-05-07T10:20:58;2.67;;;2.25;;
9370;SDS011;4725;48.384;8.984;2023-05-07T10:23:28;2.13;;;1.73;;
9370;SDS011;4725;48.384;8.984;2023-05-07T10:25:57;2.65;;;2.25;;
9370;SDS011;4725;48.384;8.984;2023-05-07T10:28:25;5.53;;;2.78;;
9370;SDS011;4725;48.384;8.984;2023-05-07T10:30:58;6.40;;;2.33;;
9370;SDS011;4725;48.384;8.984;2023-05-07T10:33:37;5.38;;;2.70;;
9370;SDS011;4725;48.384;8.984;2023-05-07T10:36:06;2.10;;;1.90;;
9370;SDS011;4725;48.384;8.984;2023-05-07T10:38:33;2.50;;;2.30;;
9370;SDS011;4725;48.384;8.984;2023-05-07T10:41:00;3.35;;;2.33;;
9370;SDS011;4725;48.384;8.984;2023-05-07T10:43:38;2.92;;;2.33;;
9370;SDS011;4725;48.384;8.984;2023-05-07T10:46:11;4.35;;;2.10;;
9370;SDS011;4725;48.384;8.984;2023-05-07T10:51:36;2.50;;;2.15;;
9370;SDS011;4725;48.384;8.984;2023-05-07T10:54:19;3.00;;;2.45;;
9370;SDS011;4725;48.384;8.984;2023-05-07T10:56:47;1.80;;;1.70;;
9370;SDS011;4725;48.384;8.984;2023-05-07T10:59:31;3.88;;;2.10;;
9370;SDS011;4725;48.384;8.984;2023-05-07T11:02:08;2.25;;;1.73;;
9370;SDS011;4725;48.384;8.984;2023-05-07T11:04:39;3.17;;;2.08;;
9370;SDS011;4725;48.384;8.984;2023-05-07T11:10:02;2.25;;;1.95;;
9370;SDS011;4725;48.384;8.984;2023-05-07T11:18:08;1.42;;;1.33;;
9370;SDS011;4725;48.384;8.984;2023-05-07T11:20:49;3.47;;;1.65;;
9370;SDS011;4725;48.384;8.984;2023-05-07T11:26:25;1.55;;;1.45;;
9370;SDS011;4725;48.384;8.984;2023-05-07T11:28:53;1.30;;;1.20;;
9370;SDS011;4725;48.384;8.984;2023-05-07T11:31:21;1.88;;;1.38;;
9370;SDS011;4725;48.384;8.984;2023-05-07T11:33:51;2.60;;;1.35;;
9370;SDS011;4725;48.384;8.984;2023-05-07T11:36:18;1.52;;;1.20;;
9370;SDS011;4725;48.384;8.984;2023-05-07T11:38:46;2.70;;;1.40;;
9370;SDS011;4725;48.384;8.984;2023-05-07T11:41:13;1.52;;;1.42;;
9370;SDS011;4725;48.384;8.984;2023-05-07T11:43:55;2.08;;;1.38;;
9370;SDS011;4725;48.384;8.984;2023-05-07T11:46:22;1.83;;;1.40;;
9370;SDS011;4725;48.384;8.984;2023-05-07T11:48:51;2.08;;;1.77;;
9370;SDS011;4725;48.384;8.984;2023-05-07T11:51:18;2.22;;;1.42;;
9370;SDS011;4725;48.384;8.984;2023-05-07T11:53:46;2.22;;;1.60;;
9370;SDS011;4725;48.384;8.984;2023-05-07T11:56:14;2.95;;;1.65;;
9370;SDS011;4725;48.384;8.984;2023-05-07T11:58:43;2.85;;;1.60;;
9370;SDS011;4725;48.384;8.984;2023-05-07T12:01:11;3.92;;;1.60;;
9370;SDS011;4725;48.384;8.984;2023-05-07T12:03:39;2.00;;;1.63;;
9370;SDS011;4725;48.384;8.984;2023-05-07T12:06:10;3.05;;;1.50;;
9370;SDS011;4725;48.384;8.984;2023-05-07T12:08:37;3.10;;;1.77;;
9370;SDS011;4725;48.384;8.984;2023-05-07T12:11:09;2.13;;;1.70;;
9370;SDS011;4725;48.384;8.984;2023-05-07T12:13:41;4.13;;;1.27;;
9370;SDS011;4725;48.384;8.984;2023-05-07T12:16:08;3.17;;;1.98;;
9370;SDS011;4725;48.384;8.984;2023-05-07T12:18:35;10.40;;;2.28;;
9370;SDS011;4725;48.384;8.984;2023-05-07T12:21:04;3.10;;;1.90;;
9370;SDS011;4725;48.384;8.984;2023-05-07T12:23:34;2.75;;;2.20;;
9370;SDS011;4725;48.384;8.984;2023-05-07T12:26:02;2.47;;;1.40;;
9370;SDS011;4725;48.384;8.984;2023-05-07T12:28:30;7.07;;;1.95;;
9370;SDS011;4725;48.384;8.984;2023-05-07T12:31:01;3.47;;;2.38;;
9370;SDS011;4725;48.384;8.984;2023-05-07T12:33:28;2.60;;;2.15;;
9370;SDS011;4725;48.384;8.984;2023-05-07T12:35:57;4.13;;;1.83;;
9370;SDS011;4725;48.384;8.984;2023-05-07T12:38:32;4.88;;;2.60;;
9370;SDS011;4725;48.384;8.984;2023-05-07T12:41:03;2.70;;;2.17;;
9370;SDS011;4725;48.384;8.984;2023-05-07T12:43:30;4.10;;;2.10;;
9370;SDS011;4725;48.384;8.984;2023-05-07T12:45:59;2.05;;;1.85;;
9370;SDS011;4725;48.384;8.984;2023-05-07T12:48:27;2.85;;;1.80;;
9370;SDS011;4725;48.384;8.984;2023-05-07T12:50:54;2.97;;;1.70;;
9370;SDS011;4725;48.384;8.984;2023-05-07T12:53:22;7.75;;;3.05;;
9370;SDS011;4725;48.384;8.984;2023-05-07T12:55:53;0.40;;;0.40;;
9370;SDS011;4725;48.384;8.984;2023-05-07T12:58:22;0.30;;;0.30;;
9370;SDS011;4725;48.384;8.984;2023-05-07T13:00:51;0.30;;;0.30;;
9370;SDS011;4725;48.384;8.984;2023-05-07T13:03:22;0.52;;;0.52;;
9370;SDS011;4725;48.384;8.984;2023-05-07T13:05:50;0.40;;;0.40;;
9370;SDS011;4725;48.384;8.984;2023-05-07T13:08:25;0.30;;;0.30;;
9370;SDS011;4725;48.384;8.984;2023-05-07T13:10:58;0.30;;;0.30;;
9370;SDS011;4725;48.384;8.984;2023-05-07T13:13:28;1.17;;;1.10;;
9370;SDS011;4725;48.384;8.984;2023-05-07T13:15:55;0.30;;;0.30;;
9370;SDS011;4725;48.384;8.984;2023-05-07T13:18:21;0.30;;;0.30;;
9370;SDS011;4725;48.384;8.984;2023-05-07T13:20:50;0.30;;;0.30;;
9370;SDS011;4725;48.384;8.984;2023-05-07T13:23:17;0.30;;;0.30;;
9370;SDS011;4725;48.384;8.984;2023-05-07T13:25:44;0.30;;;0.30;;
9370;SDS011;4725;48.384;8.984;2023-05-07T13:28:12;0.30;;;0.30;;
9370;SDS011;4725;48.384;8.984;2023-05-07T13:30:39;0.30;;;0.30;;
9370;SDS011;4725;48.384;8.984;2023-05-07T13:33:06;0.30;;;0.30;;
9370;SDS011;4725;48.384;8.984;2023-05-07T13:35:33;0.40;;;0.40;;
9370;SDS011;4725;48.384;8.984;2023-05-07T13:38:00;0.30;;;0.30;;
9370;SDS011;4725;48.384;8.984;2023-05-07T13:40:27;0.30;;;0.30;;
9370;SDS011;4725;48.384;8.984;2023-05-07T13:42:56;0.30;;;0.30;;
9370;SDS011;4725;48.384;8.984;2023-05-07T13:45:24;0.30;;;0.30;;
9370;SDS011;4725;48.384;8.984;2023-05-07T13:47:51;0.30;;;0.30;;
9370;SDS011;4725;48.384;8.984;2023-05-07T13:50:18;0.30;;;0.30;;
9370;SDS011;4725;48.384;8.984;2023-05-07T13:52:45;0.30;;;0.30;;
9370;SDS011;4725;48.384;8.984;2023-05-07T13:55:15;0.30;;;0.30;;
9370;SDS011;4725;48.384;8.984;2023-05-07T13:57:42;0.28;;;0.28;;
9370;SDS011;4725;48.384;8.984;2023-05-07T14:00:10;0.30;;;0.30;;
9370;SDS011;4725;48.384;8.984;2023-05-07T14:02:39;0.30;;;0.30;;
9370;SDS011;4725;48.384;8.984;2023-05-07T14:05:06;0.30;;;0.30;;
9370;SDS011;4725;48.384;8.984;2023-05-07T14:07:34;0.30;;;0.30;;
9370;SDS011;4725;48.384;8.984;2023-05-07T14:10:01;0.30;;;0.30;;
9370;SDS011;4725;48.384;8.984;2023-05-07T14:12:29;0.30;;;0.30;;
9370;SDS011;4725;48.384;8.984;2023-05-07T14:14:56;0.22;;;0.22;;
9370;SDS011;4725;48.384;8.984;2023-05-07T14:17:23;0.30;;;0.30;;
9370;SDS011;4725;48.384;8.984;2023-05-07T14:19:53;0.30;;;0.30;;
9370;SDS011;4725;48.384;8.984;2023-05-07T14:22:20;0.30;;;0.30;;
9370;SDS011;4725;48.384;8.984;2023-05-07T14:24:48;1.02;;;1.02;;
9370;SDS011;4725;48.384;8.984;2023-05-07T14:27:15;0.30;;;0.30;;
9370;SDS011;4725;48.384;8.984;2023-05-07T14:29:42;0.30;;;0.30;;
9370;SDS011;4725;48.384;8.984;2023-05-07T14:32:10;0.30;;;0.30;;
9370;SDS011;4725;48.384;8.984;2023-05-07T14:34:37;0.20;;;0.20;;
9370;SDS011;4725;48.384;8.984;2023-05-07T14:37:05;0.30;;;0.30;;
9370;SDS011;4725;48.384;8.984;2023-05-07T14:39:32;0.30;;;0.30;;
9370;SDS011;4725;48.384;8.984;2023-05-07T14:41:59;0.30;;;0.30;;
9370;SDS011;4725;48.384;8.984;2023-05-07T14:44:26;0.30;;;0.30;;
9370;SDS011;4725;48.384;8.984;2023-05-07T14:46:53;0.30;;;0.30;;
9370;SDS011;4725;48.384;8.984;2023-05-07T14:49:20;0.30;;;0.30;;
9370;SDS011;4725;48.384;8.984;2023-05-07T14:51:47;0.30;;;0.30;;
9370;SDS011;4725;48.384;8.984;2023-05-07T14:54:15;0.38;;;0.38;;
9370;SDS011;4725;48.384;8.984;2023-05-07T14:56:42;0.30;;;0.30;;
9370;SDS011;4725;48.384;8.984;2023-05-07T14:59:09;0.35;;;0.35;;
9370;SDS011;4725;48.384;8.984;2023-05-07T15:01:36;0.30;;;0.30;;
9370;SDS011;4725;48.384;8.984;2023-05-07T15:04:05;0.30;;;0.30;;
9370;SDS011;4725;48.384;8.984;2023-05-07T15:06:32;0.40;;;0.40;;
9370;SDS011;4725;48.384;8.984;2023-05-07T15:08:59;0.40;;;0.40;;
9370;SDS011;4725;48.384;8.984;2023-05-07T15:11:27;0.40;;;0.40;;
9370;SDS011;4725;48.384;8.984;2023-05-07T15:13:54;0.40;;;0.40;;
9370;SDS011;4725;48.384;8.984;2023-05-07T15:16:21;0.40;;;0.40;;
9370;SDS011;4725;48.384;8.984;2023-05-07T15:18:48;0.60;;;0.60;;
9370;SDS011;4725;48.384;8.984;2023-05-07T15:21:15;0.40;;;0.40;;
9370;SDS011;4725;48.384;8.984;2023-05-07T15:23:42;0.40;;;0.40;;
9370;SDS011;4725;48.384;8.984;2023-05-07T15:26:09;0.40;;;0.40;;
9370;SDS011;4725;48.384;8.984;2023-05-07T15:28:38;0.40;;;0.40;;
9370;SDS011;4725;48.384;8.984;2023-05-07T15:31:05;0.40;;;0.40;;
9370;SDS011;4725;48.384;8.984;2023-05-07T15:33:32;0.40;;;0.40;;